createdAt,value
2019-06-10T00:02:03.431Z,16.50
2019-06-10T00:04:31.497Z,16.40
2019-06-10T00:07:03.523Z,16.40
2019-06-10T00:09:31.421Z,16.40
2019-06-10T00:12:02.784Z,16.40
2019-06-10T00:14:31.532Z,16.40
2019-06-10T00:17:02.005Z,16.40
2019-06-10T00:19:31.825Z,16.40
2019-06-10T00:22:02.405Z,16.30
2019-06-10T00:24:31.740Z,16.30
2019-06-10T00:27:02.869Z,16.30
2019-06-10T00:29:31.626Z,16.20
2019-06-10T00:32:03.259Z,16.20
2019-06-10T00:34:34.882Z,16.20
2019-06-10T00:37:05.815Z,16.20
2019-06-10T00:39:32.870Z,16.20
2019-06-10T00:42:03.160Z,16.20
2019-06-10T00:44:32.697Z,16.10
2019-06-10T00:47:04.781Z,16.10
2019-06-10T00:49:32.509Z,16.10
2019-06-10T00:52:04.213Z,16.10
2019-06-10T00:54:32.515Z,16.10
2019-06-10T00:57:02.844Z,16.10
2019-06-10T00:59:32.248Z,16.00
2019-06-10T01:02:01.760Z,16.00
2019-06-10T01:04:32.142Z,16.00
2019-06-10T01:07:02.402Z,15.90
2019-06-10T01:09:31.741Z,15.90
2019-06-10T01:12:01.253Z,15.90
2019-06-10T01:14:32.012Z,15.90
2019-06-10T01:17:01.426Z,15.90
2019-06-10T01:19:31.095Z,15.90
2019-06-10T01:22:01.579Z,15.90
2019-06-10T01:24:31.410Z,15.80
2019-06-10T01:27:01.242Z,15.80
2019-06-10T01:29:32.169Z,15.80
2019-06-10T01:32:01.746Z,15.80
2019-06-10T01:34:31.218Z,15.80
2019-06-10T01:37:01.462Z,15.80
2019-06-10T01:39:31.022Z,15.70
2019-06-10T01:42:00.606Z,15.70
2019-06-10T01:44:31.036Z,15.70
2019-06-10T01:47:01.048Z,15.70
2019-06-10T01:49:30.827Z,15.70
2019-06-10T01:52:01.670Z,15.70
2019-06-10T01:54:31.668Z,15.70
2019-06-10T01:57:01.499Z,15.70
2019-06-10T01:59:31.270Z,15.60
2019-06-10T02:02:07.579Z,15.60
2019-06-10T02:04:36.538Z,15.60
2019-06-10T02:07:05.670Z,15.60
2019-06-10T02:09:34.705Z,15.60
2019-06-10T02:12:03.747Z,15.60
2019-06-10T02:14:32.813Z,15.60
2019-06-10T02:17:01.843Z,15.60
2019-06-10T02:19:31.324Z,15.50
2019-06-10T02:22:01.276Z,15.50
2019-06-10T02:24:31.546Z,15.50
2019-06-10T02:27:01.162Z,15.50
2019-06-10T02:29:30.876Z,15.50
2019-06-10T02:32:04.496Z,15.50
2019-06-10T02:34:34.104Z,15.50
2019-06-10T02:37:04.784Z,15.50
2019-06-10T02:39:38.327Z,15.50
2019-06-10T02:42:13.135Z,15.50
2019-06-10T02:44:44.181Z,15.50
2019-06-10T02:47:15.823Z,15.40
2019-06-10T02:49:57.099Z,15.40
2019-06-10T02:52:20.666Z,15.40
2019-06-10T02:54:53.118Z,15.40
2019-06-10T02:57:28.475Z,15.40
2019-06-10T02:59:54.379Z,15.40
2019-06-10T03:02:27.038Z,15.30
2019-06-10T03:04:53.748Z,15.30
2019-06-10T03:07:26.790Z,15.30
2019-06-10T03:09:54.083Z,15.30
2019-06-10T03:12:25.742Z,15.20
2019-06-10T03:14:54.729Z,15.20
2019-06-10T03:17:25.991Z,15.20
2019-06-10T03:19:55.273Z,15.20
2019-06-10T03:22:25.799Z,15.20
2019-06-10T03:24:54.940Z,15.20
2019-06-10T03:27:26.278Z,15.20
2019-06-10T03:29:54.790Z,15.20
2019-06-10T03:32:32.585Z,15.20
2019-06-10T03:34:55.076Z,15.10
2019-06-10T03:37:26.340Z,15.10
2019-06-10T03:39:55.359Z,15.10
2019-06-10T03:42:26.433Z,15.10
2019-06-10T03:44:55.273Z,15.10
2019-06-10T03:47:26.761Z,15.00
2019-06-10T03:49:56.212Z,15.00
2019-06-10T03:52:27.198Z,15.00
2019-06-10T03:54:56.620Z,15.00
2019-06-10T03:57:26.957Z,15.00
2019-06-10T03:59:56.474Z,14.90
2019-06-10T04:02:26.845Z,14.90
2019-06-10T04:04:56.425Z,14.90
2019-06-10T04:07:28.268Z,14.90
2019-06-10T04:09:56.210Z,14.90
2019-06-10T04:12:27.184Z,14.90
2019-06-10T04:14:56.035Z,14.90
2019-06-10T04:17:25.701Z,14.90
2019-06-10T04:20:09.184Z,14.80
2019-06-10T04:22:28.419Z,14.80
2019-06-10T04:24:57.478Z,14.80
2019-06-10T04:27:27.168Z,14.80
2019-06-10T04:29:57.400Z,14.80
2019-06-10T04:32:27.768Z,14.80
2019-06-10T04:34:57.262Z,14.80
2019-06-10T04:37:27.760Z,14.80
2019-06-10T04:39:57.653Z,14.80
2019-06-10T04:42:27.327Z,14.80
2019-06-10T04:44:56.495Z,14.80
2019-06-10T04:47:26.761Z,14.80
2019-06-10T04:49:56.314Z,14.80
2019-06-10T04:52:26.713Z,14.80
2019-06-10T04:54:56.153Z,14.90
2019-06-10T04:57:26.557Z,14.90
2019-06-10T04:59:55.905Z,14.90
2019-06-10T05:02:26.469Z,14.90
2019-06-10T05:04:55.580Z,14.90
2019-06-10T05:07:27.057Z,14.90
2019-06-10T05:09:55.273Z,14.90
2019-06-10T05:12:26.239Z,14.90
2019-06-10T05:14:55.098Z,14.90
2019-06-10T05:17:26.300Z,14.90
2019-06-10T05:19:54.960Z,14.90
2019-06-10T05:22:25.442Z,14.90
2019-06-10T05:24:54.802Z,14.90
2019-06-10T05:27:25.379Z,14.90
2019-06-10T05:29:54.620Z,15.00
2019-06-10T05:32:25.921Z,15.00
2019-06-10T05:34:54.460Z,15.00
2019-06-10T05:37:26.098Z,15.10
2019-06-10T05:39:54.403Z,15.10
2019-06-10T05:42:26.074Z,15.10
2019-06-10T05:44:54.337Z,15.10
2019-06-10T05:47:25.984Z,15.20
2019-06-10T05:49:53.966Z,15.20
2019-06-10T05:52:24.892Z,15.20
2019-06-10T05:54:54.194Z,15.30
2019-06-10T05:57:35.484Z,15.30
2019-06-10T06:00:11.422Z,15.40
2019-06-10T06:02:56.382Z,15.40
2019-06-10T06:05:25.991Z,15.50
2019-06-10T06:08:04.911Z,15.50
2019-06-10T06:10:27.259Z,15.50
2019-06-10T06:12:56.504Z,15.60
2019-06-10T06:15:25.547Z,15.60
2019-06-10T06:18:06.534Z,15.70
2019-06-10T06:20:25.367Z,15.70
2019-06-10T06:22:54.566Z,15.80
2019-06-10T06:25:24.229Z,15.80
2019-06-10T06:27:53.617Z,15.90
2019-06-10T06:30:36.141Z,16.00
2019-06-10T06:32:53.506Z,16.10
2019-06-10T06:35:22.751Z,16.20
2019-06-10T06:37:54.076Z,16.30
2019-06-10T06:40:23.159Z,16.30
2019-06-10T06:42:52.620Z,16.40
2019-06-10T06:45:22.271Z,16.50
2019-06-10T06:47:52.808Z,16.60
2019-06-10T06:50:25.569Z,16.60
2019-06-10T06:53:19.824Z,16.70
2019-06-10T06:55:30.674Z,16.80
2019-06-10T06:58:03.407Z,16.80
2019-06-10T07:01:00.122Z,16.90
2019-06-10T07:03:18.726Z,17.00
2019-06-10T07:05:47.801Z,17.00
2019-06-10T07:08:17.607Z,17.10
2019-06-10T07:10:47.900Z,17.10
2019-06-10T07:13:17.232Z,17.20
2019-06-10T07:15:47.662Z,17.30
2019-06-10T07:18:17.096Z,17.30
2019-06-10T07:20:46.241Z,17.40
2019-06-10T07:23:15.305Z,17.50
2019-06-10T07:25:47.246Z,17.50
2019-06-10T07:28:15.167Z,17.60
2019-06-10T07:30:51.222Z,17.60
2019-06-10T07:33:15.033Z,17.70
2019-06-10T07:35:45.352Z,17.80
2019-06-10T07:38:14.517Z,17.80
2019-06-10T07:40:45.654Z,17.90
2019-06-10T07:43:14.408Z,18.00
2019-06-10T07:45:47.579Z,18.00
2019-06-10T07:48:14.169Z,18.10
2019-06-10T07:50:45.600Z,18.20
2019-06-10T07:53:14.021Z,18.20
2019-06-10T07:55:46.259Z,18.30
2019-06-10T07:58:13.665Z,18.40
2019-06-10T08:00:46.471Z,18.50
2019-06-10T08:03:13.565Z,18.50
2019-06-10T08:05:45.053Z,18.60
2019-06-10T08:08:13.589Z,18.60
2019-06-10T08:10:44.837Z,18.70
2019-06-10T08:13:13.445Z,18.80
2019-06-10T08:15:44.642Z,18.80
2019-06-10T08:18:13.303Z,18.90
2019-06-10T08:20:45.525Z,18.90
2019-06-10T08:23:19.091Z,19.00
2019-06-10T08:25:56.460Z,19.10
2019-06-10T08:28:23.018Z,19.20
2019-06-10T08:30:53.206Z,19.30
2019-06-10T08:33:22.736Z,19.40
2019-06-10T08:35:57.270Z,19.50
2019-06-10T08:38:23.176Z,19.50
2019-06-10T08:40:52.584Z,19.60
2019-06-10T08:43:22.635Z,19.70
2019-06-10T08:45:53.007Z,19.80
2019-06-10T08:48:22.914Z,19.90
2019-06-10T08:50:53.117Z,20.00
2019-06-10T08:53:22.902Z,20.10
2019-06-10T08:55:53.584Z,20.10
2019-06-10T08:58:23.259Z,20.20
2019-06-10T09:00:53.531Z,20.20
2019-06-10T09:03:23.471Z,20.30
2019-06-10T09:05:54.458Z,20.40
2019-06-10T09:08:24.326Z,20.50
2019-06-10T09:10:55.130Z,20.60
2019-06-10T09:13:24.254Z,20.60
2019-06-10T09:16:09.693Z,20.70
2019-06-10T09:18:24.225Z,20.80
2019-06-10T09:20:56.030Z,20.90
2019-06-10T09:23:25.619Z,21.00
2019-06-10T09:25:57.436Z,21.00
2019-06-10T09:28:25.586Z,21.10
2019-06-10T09:30:59.181Z,21.20
2019-06-10T09:33:25.512Z,21.20
2019-06-10T09:35:55.132Z,21.30
2019-06-10T09:38:24.210Z,21.40
2019-06-10T09:41:01.252Z,21.50
2019-06-10T09:43:25.083Z,21.60
2019-06-10T09:45:56.221Z,21.70
2019-06-10T09:48:25.945Z,21.70
2019-06-10T09:50:58.804Z,21.80
2019-06-10T09:53:33.863Z,21.90
2019-06-10T09:55:56.590Z,22.00
2019-06-10T09:58:25.740Z,22.00
2019-06-10T10:00:58.224Z,22.10
2019-06-10T10:03:27.444Z,22.20
2019-06-10T10:06:09.789Z,22.30
2019-06-10T10:08:27.341Z,22.30
2019-06-10T10:10:58.912Z,22.40
2019-06-10T10:13:27.185Z,22.50
2019-06-10T10:15:56.241Z,22.60
2019-06-10T10:18:25.399Z,22.70
2019-06-10T10:20:59.175Z,22.80
2019-06-10T10:23:25.298Z,22.80
2019-06-10T10:25:56.922Z,22.90
2019-06-10T10:28:26.438Z,23.00
2019-06-10T10:30:57.936Z,23.10
2019-06-10T10:33:29.961Z,23.20
2019-06-10T10:35:57.281Z,23.30
2019-06-10T10:38:26.313Z,23.30
2019-06-10T10:40:58.599Z,23.40
2019-06-10T10:43:32.992Z,23.40
2019-06-10T10:46:00.219Z,23.50
2019-06-10T10:48:27.894Z,23.60
2019-06-10T10:50:56.940Z,23.70
2019-06-10T10:53:26.042Z,23.80
2019-06-10T10:55:55.083Z,23.80
2019-06-10T10:58:24.101Z,23.90
2019-06-10T11:00:56.512Z,24.00
2019-06-10T11:03:23.911Z,24.10
2019-06-10T11:06:00.492Z,24.20
2019-06-10T11:08:23.825Z,24.20
2019-06-10T11:10:57.821Z,24.30
2019-06-10T11:13:25.884Z,24.50
2019-06-10T11:15:56.681Z,24.50
2019-06-10T11:18:25.739Z,24.60
2019-06-10T11:20:54.836Z,24.70
2019-06-10T11:23:23.924Z,24.80
2019-06-10T11:25:56.649Z,24.80
2019-06-10T11:28:23.945Z,24.90
2019-06-10T11:30:56.713Z,25.00
2019-06-10T11:33:23.757Z,25.00
2019-06-10T11:35:55.096Z,25.10
2019-06-10T11:38:23.573Z,25.20
2019-06-10T11:40:57.741Z,25.30
2019-06-10T11:43:23.623Z,25.40
2019-06-10T11:45:59.003Z,25.40
2019-06-10T11:48:24.401Z,25.50
2019-06-10T11:50:56.493Z,25.60
2019-06-10T11:53:24.314Z,25.60
2019-06-10T11:55:53.799Z,25.80
2019-06-10T11:58:22.889Z,25.80
2019-06-10T12:00:55.863Z,25.90
2019-06-10T12:03:23.155Z,26.00
2019-06-10T12:05:55.767Z,26.00
2019-06-10T12:08:23.871Z,26.10
2019-06-10T12:10:57.285Z,26.10
2019-06-10T12:13:23.875Z,26.10
2019-06-10T12:16:32.742Z,26.10
2019-06-10T12:18:23.609Z,26.20
2019-06-10T12:20:57.559Z,26.20
2019-06-10T12:23:23.456Z,26.20
2019-06-10T12:25:55.909Z,26.20
2019-06-10T12:28:23.320Z,26.20
2019-06-10T12:30:56.229Z,26.20
2019-06-10T12:33:25.393Z,26.10
2019-06-10T12:35:58.162Z,26.10
2019-06-10T12:38:24.810Z,26.10
2019-06-10T12:40:56.889Z,26.00
2019-06-10T12:43:24.934Z,26.00
2019-06-10T12:45:55.872Z,26.00
2019-06-10T12:48:24.726Z,26.00
2019-06-10T12:50:55.979Z,25.90
2019-06-10T12:53:24.546Z,25.80
2019-06-10T12:55:55.830Z,25.70
2019-06-10T12:58:24.285Z,25.60
2019-06-10T13:00:54.343Z,25.50
2019-06-10T13:03:24.099Z,25.40
2019-06-10T13:05:53.530Z,25.40
2019-06-10T13:08:23.808Z,25.30
2019-06-10T13:10:53.550Z,25.30
2019-06-10T13:13:22.981Z,25.10
2019-06-10T13:15:53.189Z,25.10
2019-06-10T13:18:23.751Z,25.10
2019-06-10T13:20:53.940Z,25.00
2019-06-10T13:23:28.957Z,24.90
2019-06-10T13:25:58.750Z,24.90
2019-06-10T13:28:24.739Z,24.80
2019-06-10T13:30:54.691Z,24.70
2019-06-10T13:33:24.604Z,24.70
2019-06-10T13:35:53.913Z,24.60
2019-06-10T13:38:25.715Z,24.60
2019-06-10T13:40:54.027Z,24.50
2019-06-10T13:43:23.372Z,24.40
2019-06-10T13:45:53.294Z,24.40
2019-06-10T13:48:25.860Z,24.30
2019-06-10T13:50:53.580Z,24.30
2019-06-10T13:53:22.715Z,24.30
2019-06-10T13:56:02.647Z,24.30
2019-06-10T13:58:23.052Z,24.30
2019-06-10T14:00:53.670Z,24.30
2019-06-10T14:03:23.183Z,24.30
2019-06-10T14:05:57.767Z,24.40
2019-06-10T14:08:23.466Z,24.40
2019-06-10T14:10:54.152Z,24.40
2019-06-10T14:13:23.809Z,24.40
2019-06-10T14:15:54.457Z,24.50
2019-06-10T14:18:23.847Z,24.50
2019-06-10T14:20:53.370Z,24.50
2019-06-10T14:23:22.790Z,24.60
2019-06-10T14:25:53.285Z,24.70
2019-06-10T14:28:38.810Z,24.70
2019-06-10T14:30:53.974Z,24.80
2019-06-10T14:33:23.498Z,24.90
2019-06-10T14:35:53.503Z,25.00
2019-06-10T14:38:22.701Z,25.10
2019-06-10T14:40:52.498Z,25.10
2019-06-10T14:43:23.287Z,25.20
2019-06-10T14:45:53.402Z,25.30
2019-06-10T14:48:23.556Z,25.30
2019-06-10T14:50:53.501Z,25.30
2019-06-10T14:53:23.183Z,25.40
2019-06-10T14:55:53.211Z,25.40
2019-06-10T14:58:23.261Z,25.40
2019-06-10T15:00:54.114Z,25.40
2019-06-10T15:03:23.198Z,25.30
2019-06-10T15:05:53.025Z,25.30
2019-06-10T15:08:23.313Z,25.30
2019-06-10T15:10:53.355Z,25.30
2019-06-10T15:13:27.591Z,25.30
2019-06-10T15:15:57.252Z,25.20
2019-06-10T15:18:26.738Z,25.20
2019-06-10T15:20:55.905Z,25.20
2019-06-10T15:23:25.179Z,25.10
2019-06-10T15:25:57.180Z,25.10
2019-06-10T15:28:24.841Z,25.10
2019-06-10T15:30:53.893Z,25.10
2019-06-10T15:33:23.897Z,25.10
2019-06-10T15:35:53.576Z,25.10
2019-06-10T15:38:23.358Z,25.10
2019-06-10T15:40:53.343Z,25.10
2019-06-10T15:43:23.569Z,25.10
2019-06-10T15:45:53.243Z,25.10
2019-06-10T15:48:25.267Z,25.10
2019-06-10T15:50:53.136Z,25.00
2019-06-10T15:53:25.621Z,25.00
2019-06-10T15:56:13.425Z,24.90
2019-06-10T15:58:25.875Z,24.90
2019-06-10T16:00:54.522Z,24.90
2019-06-10T16:03:25.605Z,24.80
2019-06-10T16:05:54.399Z,24.80
2019-06-10T16:08:23.458Z,24.70
2019-06-10T16:10:52.854Z,24.70
2019-06-10T16:13:25.616Z,24.70
2019-06-10T16:15:53.428Z,24.60
2019-06-10T16:18:26.042Z,24.60
2019-06-10T16:20:53.391Z,24.50
2019-06-10T16:23:24.618Z,24.50
2019-06-10T16:25:53.759Z,24.50
2019-06-10T16:28:26.111Z,24.40
2019-06-10T16:30:54.151Z,24.40
2019-06-10T16:33:27.315Z,24.40
2019-06-10T16:35:54.858Z,24.30
2019-06-10T16:38:25.801Z,24.30
2019-06-10T16:40:54.635Z,24.20
2019-06-10T16:43:25.784Z,24.10
2019-06-10T16:45:54.611Z,24.00
2019-06-10T16:48:23.651Z,24.00
2019-06-10T16:50:54.295Z,23.90
2019-06-10T16:53:28.520Z,23.80
2019-06-10T16:55:54.191Z,23.80
2019-06-10T16:58:26.579Z,23.80
2019-06-10T17:00:54.652Z,23.80
2019-06-10T17:03:26.580Z,23.80
2019-06-10T17:05:54.458Z,23.70
2019-06-10T17:08:26.469Z,23.70
2019-06-10T17:10:54.281Z,23.70
2019-06-10T17:13:26.557Z,23.70
2019-06-10T17:15:55.850Z,23.60
2019-06-10T17:18:26.571Z,23.60
2019-06-10T17:20:55.835Z,23.60
2019-06-10T17:23:28.026Z,23.50
2019-06-10T17:25:57.550Z,23.50
2019-06-10T17:28:31.747Z,23.50
2019-06-10T17:30:59.029Z,23.40
2019-06-10T17:33:29.941Z,23.40
2019-06-10T17:38:34.765Z,23.30
2019-06-10T17:41:03.984Z,23.30
2019-06-10T17:43:34.448Z,23.20
2019-06-10T17:46:03.923Z,23.20
2019-06-10T17:48:33.999Z,23.20
2019-06-10T17:51:03.042Z,23.10
2019-06-10T17:53:34.627Z,23.10
2019-06-10T17:56:03.387Z,23.10
2019-06-10T17:58:47.509Z,23.00
2019-06-10T18:01:03.534Z,23.00
2019-06-10T18:03:33.398Z,22.90
2019-06-10T18:06:03.136Z,22.90
2019-06-10T18:08:34.911Z,22.90
2019-06-10T18:11:03.431Z,22.80
2019-06-10T18:13:34.736Z,22.80
2019-06-10T18:16:03.836Z,22.80
2019-06-10T18:18:36.640Z,22.80
2019-06-10T18:21:03.706Z,22.70
2019-06-10T18:23:33.121Z,22.70
2019-06-10T18:26:03.198Z,22.70
2019-06-10T18:28:45.362Z,22.60
2019-06-10T18:31:03.482Z,22.60
2019-06-10T18:33:36.013Z,22.60
2019-06-10T18:36:03.450Z,22.50
2019-06-10T18:38:35.178Z,22.50
2019-06-10T18:41:03.426Z,22.40
2019-06-10T18:43:34.150Z,22.30
2019-06-10T18:46:03.623Z,22.30
2019-06-10T18:48:36.114Z,22.20
2019-06-10T18:51:03.621Z,22.20
2019-06-10T18:53:33.498Z,22.10
2019-06-10T18:56:03.578Z,22.10
2019-06-10T18:58:35.522Z,22.00
2019-06-10T19:01:07.776Z,22.00
2019-06-10T19:03:36.325Z,22.00
2019-06-10T19:06:05.760Z,21.90
2019-06-10T19:08:36.019Z,21.90
2019-06-10T19:11:05.829Z,21.80
2019-06-10T19:13:37.054Z,21.70
2019-06-10T19:16:06.044Z,21.60
2019-06-10T19:18:36.078Z,21.60
2019-06-10T19:21:08.601Z,21.50
2019-06-10T19:23:37.786Z,21.50
2019-06-10T19:26:06.690Z,21.40
2019-06-10T19:28:38.419Z,21.30
2019-06-10T19:31:06.311Z,21.30
2019-06-10T19:33:37.047Z,21.30
2019-06-10T19:36:06.174Z,21.20
2019-06-10T19:38:36.688Z,21.10
2019-06-10T19:41:06.007Z,21.10
2019-06-10T19:43:36.518Z,21.10
2019-06-10T19:46:07.547Z,21.00
2019-06-10T19:48:40.167Z,21.00
2019-06-10T19:51:07.297Z,20.90
2019-06-10T19:53:37.253Z,20.80
2019-06-10T19:56:06.753Z,20.80
2019-06-10T19:58:46.515Z,20.50
2019-06-10T20:01:15.665Z,20.10
2019-06-10T20:03:46.423Z,19.50
2019-06-10T20:06:15.476Z,19.10
2019-06-10T20:08:46.128Z,19.00
2019-06-10T20:11:15.466Z,18.90
2019-06-10T20:13:46.623Z,18.80
2019-06-10T20:16:15.321Z,18.70
2019-06-10T20:18:47.547Z,18.60
2019-06-10T20:21:15.648Z,18.50
2019-06-10T20:23:45.895Z,18.40
2019-06-10T20:26:15.286Z,18.40
2019-06-10T20:28:46.706Z,18.20
2019-06-10T20:31:15.282Z,18.10
2019-06-10T20:33:44.426Z,18.10
2019-06-10T20:36:21.270Z,18.00
2019-06-10T20:38:47.276Z,18.00
2019-06-10T20:41:15.444Z,18.00
2019-06-10T20:43:47.145Z,18.00
2019-06-10T20:46:15.220Z,18.00
2019-06-10T20:48:47.479Z,18.00
2019-06-10T20:51:15.115Z,18.10
2019-06-10T20:53:45.994Z,18.00
2019-06-10T20:56:15.637Z,18.00
2019-06-10T20:58:46.456Z,18.00
2019-06-10T21:01:15.897Z,18.00
2019-06-10T21:03:47.615Z,18.00
2019-06-10T21:06:19.223Z,18.00
2019-06-10T21:08:51.171Z,17.90
2019-06-10T21:11:20.270Z,17.80
2019-06-10T21:13:51.119Z,17.70
2019-06-10T21:16:20.019Z,17.70
2019-06-10T21:18:50.365Z,17.60
2019-06-10T21:21:22.449Z,17.50
2019-06-10T21:23:51.778Z,17.50
2019-06-10T21:26:23.410Z,17.50
2019-06-10T21:28:54.893Z,17.40
2019-06-10T21:31:22.563Z,17.40
2019-06-10T21:33:55.405Z,17.40
2019-06-10T21:36:23.008Z,17.40
2019-06-10T21:38:55.687Z,17.40
2019-06-10T21:41:23.175Z,17.40
2019-06-10T21:43:59.030Z,17.40
2019-06-10T21:46:22.929Z,17.40
2019-06-10T21:48:53.221Z,17.40
2019-06-10T21:51:23.019Z,17.30
2019-06-10T21:53:54.728Z,17.30
2019-06-10T21:56:22.825Z,17.30
2019-06-10T21:58:54.129Z,17.20
2019-06-10T22:01:23.149Z,17.30
2019-06-10T22:03:59.962Z,17.20
2019-06-10T22:06:22.995Z,17.20
2019-06-10T22:08:54.577Z,17.20
2019-06-10T22:11:23.350Z,17.20
2019-06-10T22:13:55.771Z,17.20
2019-06-10T22:16:23.680Z,17.20
2019-06-10T22:18:52.991Z,17.20
2019-06-10T22:21:22.857Z,17.10
2019-06-10T22:23:55.053Z,17.10
2019-06-10T22:26:22.700Z,17.10
2019-06-10T22:28:54.088Z,17.10
2019-06-10T22:31:25.764Z,17.10
2019-06-10T22:33:55.625Z,17.10
2019-06-10T22:36:24.098Z,17.00
2019-06-10T22:38:55.831Z,17.00
2019-06-10T22:41:23.800Z,17.00
2019-06-10T22:43:55.798Z,17.00
2019-06-10T22:46:23.537Z,17.00
2019-06-10T22:48:53.417Z,17.00
2019-06-10T22:51:22.950Z,16.90
2019-06-10T22:53:54.851Z,16.90
2019-06-10T22:56:23.020Z,16.90
2019-06-10T22:58:53.940Z,16.80
2019-06-10T23:01:33.528Z,16.90
2019-06-10T23:03:54.178Z,16.90
2019-06-10T23:06:23.483Z,16.80
2019-06-10T23:08:54.702Z,16.80
2019-06-10T23:11:24.083Z,16.70
2019-06-10T23:13:55.027Z,16.70
2019-06-10T23:16:23.960Z,16.70
2019-06-10T23:18:54.990Z,16.70
2019-06-10T23:21:23.784Z,16.70
2019-06-10T23:23:55.425Z,16.70
2019-06-10T23:26:23.592Z,16.70
2019-06-10T23:28:54.441Z,16.70
2019-06-10T23:31:23.401Z,16.70
2019-06-10T23:33:56.017Z,16.70
2019-06-10T23:36:23.677Z,16.60
2019-06-10T23:38:53.042Z,16.60
2019-06-10T23:41:22.483Z,16.60
2019-06-10T23:43:53.031Z,16.60
2019-06-10T23:46:22.693Z,16.60
2019-06-10T23:48:51.911Z,16.60
2019-06-10T23:51:22.833Z,16.60
2019-06-10T23:53:54.416Z,16.60
2019-06-10T23:56:22.514Z,16.60
2019-06-10T23:58:53.749Z,16.60
